Time;durP1;ratioP1;P1;durP2;ratioP2;P2;SDS_P1;SDS_P2;PMS_P1;PMS_P2;Temp;Humidity;BMP_temperature;BMP_pressure;BME280_temperature;BME280_humidity;BME280_pressure;Samples;Min_cycle;Max_cycle;Signal;HPM_P1;HPM_P2
2021/07/17 00:53:15;;;;;;;10.90;8.53;;;20.30;99.90;;;;;;5016723;28;20478;-85
2021/07/17 00:56:57;;;;;;;;;;;;;;;;;;;;;
2021/07/17 01:11:28;;;;;;;17.23;9.33;;;20.30;99.90;;;;;;4973878;28;20470;-91
2021/07/17 01:19:07;;;;;;;19.90;10.27;;;20.30;99.90;;;;;;4861752;29;20456;-84
2021/07/17 01:22:26;;;;;;;;;;;;;;;;;;;;;
2021/07/17 01:25:48;;;;;;;;;;;;;;;;;;;;;
2021/07/17 01:32:42;;;;;;;17.83;10.37;;;20.30;99.90;;;;;;4871790;29;20532;-84
2021/07/17 01:40:03;;;;;;;20.10;11.70;;;20.20;99.90;;;;;;4796447;30;20492;-84
2021/07/17 01:43:55;;;;;;;;;;;;;;;;;;;;;
2021/07/17 01:47:34;;;;;;;17.90;11.53;;;20.40;99.90;;;;;;4761436;29;20650;-84
2021/07/17 01:51:04;;;;;;;20.93;10.40;;;20.30;99.90;;;;;;4860705;23;20462;-85
2021/07/17 01:55:22;;;;;;;;;;;;;;;;;;;;;
2021/07/17 01:58:53;;;;;;;16.87;9.03;;;20.40;99.90;;;;;;4965701;28;20440;-83
2021/07/17 02:14:06;;;;;;;;;;;;;;;;;;;;;
2021/07/17 02:18:07;;;;;;;15.23;9.97;;;20.20;99.90;;;;;;4853797;29;20610;-84
2021/07/17 02:21:27;;;;;;;18.40;10.90;;;20.30;99.90;;;;;;4791990;29;20464;-84
2021/07/17 02:24:07;;;;;;;17.03;9.40;;;20.50;99.90;;;;;;4855151;29;21241;-86
2021/07/17 02:26:58;;;;;;;14.73;10.33;;;20.50;99.90;;;;;;4845957;29;20563;-83
2021/07/17 02:29:37;;;;;;;18.07;10.73;;;20.50;99.90;;;;;;4841787;29;20429;-90
2021/07/17 02:32:30;;;;;;;20.03;11.93;;;20.40;99.90;;;;;;4871463;29;20929;-85
2021/07/17 02:35:56;;;;;;;;;;;;;;;;;;;;;
2021/07/17 02:38:30;;;;;;;16.50;10.30;;;20.30;99.90;;;;;;5007732;28;20513;-86
2021/07/17 02:41:09;;;;;;;17.10;11.77;;;20.30;99.90;;;;;;4998551;28;20466;-85
2021/07/17 02:43:48;;;;;;;14.20;10.57;;;20.30;99.90;;;;;;5032271;28;20474;-88
2021/07/17 02:46:50;;;;;;;16.07;10.40;;;20.20;99.90;;;;;;5018139;28;20422;-87
2021/07/17 02:49:33;;;;;;;13.93;9.60;;;20.20;99.90;;;;;;5016462;28;20447;-86
2021/07/17 02:52:10;;;;;;;16.63;10.10;;;20.20;99.90;;;;;;5005079;28;20556;-87
2021/07/17 02:55:00;;;;;;;15.47;11.70;;;20.20;99.90;;;;;;5003719;28;20466;-86
2021/07/17 02:57:39;;;;;;;17.30;11.63;;;20.50;99.90;;;;;;5014451;28;20478;-86
2021/07/17 03:00:20;;;;;;;17.63;10.27;;;20.70;99.90;;;;;;4997680;28;20515;-85
2021/07/17 03:03:18;;;;;;;14.20;10.60;;;20.50;99.90;;;;;;4999284;28;20795;-86
2021/07/17 03:05:54;;;;;;;15.70;10.93;;;20.50;99.90;;;;;;4995344;28;20966;-86
2021/07/17 03:08:44;;;;;;;19.30;11.90;;;20.30;99.90;;;;;;5003539;28;20462;-84
2021/07/17 03:11:35;;;;;;;18.13;12.47;;;20.10;99.90;;;;;;5012024;28;20477;-85
2021/07/17 03:17:32;;;;;;;14.90;11.20;;;20.00;99.90;;;;;;5015537;28;20450;-85
2021/07/17 03:20:29;;;;;;;18.20;11.10;;;20.00;99.90;;;;;;5005603;28;20532;-87
2021/07/17 03:23:07;;;;;;;17.73;10.73;;;20.00;99.90;;;;;;5013261;28;20457;-85
2021/07/17 03:25:52;;;;;;;16.93;11.93;;;20.00;99.90;;;;;;5027201;28;20823;-85
2021/07/17 03:28:46;;;;;;;23.10;11.40;;;20.00;99.90;;;;;;4992350;28;20447;-85
2021/07/17 03:31:38;;;;;;;20.40;11.90;;;20.00;99.90;;;;;;4993031;28;20563;-85
2021/07/17 03:34:34;;;;;;;;;;;;;;;;;;;;;
2021/07/17 03:37:38;;;;;;;18.53;11.97;;;20.20;99.90;;;;;;5019957;28;20432;-84
2021/07/17 03:44:06;;;;;;;17.03;11.70;;;20.10;99.90;;;;;;5016376;28;20462;-86
2021/07/17 03:47:13;;;;;;;20.33;11.70;;;20.00;99.90;;;;;;4975763;28;20746;-85
2021/07/17 03:50:06;;;;;;;20.50;11.97;;;20.00;99.90;;;;;;5000613;28;20473;-86
2021/07/17 03:53:13;;;;;;;;;;;;;;;;;;;;;
2021/07/17 03:55:51;;;;;;;19.93;12.60;;;20.10;99.90;;;;;;5024788;28;20501;-83
2021/07/17 03:59:06;;;;;;;17.60;11.87;;;20.10;99.90;;;;;;5004527;28;20466;-85
2021/07/17 04:02:08;;;;;;;16.13;11.83;;;20.10;99.90;;;;;;5011868;28;20474;-85
2021/07/17 04:05:03;;;;;;;21.70;14.27;;;20.10;99.90;;;;;;4997162;28;20458;-84
2021/07/17 04:08:08;;;;;;;14.73;10.63;;;20.00;99.90;;;;;;4995897;28;20613;-85
2021/07/17 04:11:13;;;;;;;16.80;10.87;;;20.00;99.90;;;;;;4978364;28;20463;-83
2021/07/17 04:14:10;;;;;;;19.60;12.30;;;20.00;99.90;;;;;;4989921;28;20450;-83
2021/07/17 04:16:53;;;;;;;15.73;11.87;;;20.00;99.90;;;;;;5010016;28;20458;-82
2021/07/17 04:20:25;;;;;;;;;;;;;;;;;;;;;
2021/07/17 04:23:55;;;;;;;;;;;;;;;;;;;;;
2021/07/17 04:26:36;;;;;;;18.20;11.07;;;20.10;99.90;;;;;;4953201;28;20468;-83
2021/07/17 04:29:10;;;;;;;17.67;11.13;;;20.10;99.90;;;;;;4932584;29;20580;-85
2021/07/17 04:32:03;;;;;;;17.90;10.53;;;20.10;99.90;;;;;;4938598;29;20481;-83
2021/07/17 04:35:06;;;;;;;16.23;11.00;;;20.10;99.90;;;;;;4922714;29;20442;-83
2021/07/17 04:37:49;;;;;;;12.80;11.17;;;20.00;99.90;;;;;;4929094;29;21026;-83
2021/07/17 04:41:00;;;;;;;17.40;10.43;;;20.00;99.90;;;;;;4959941;28;21003;-83
2021/07/17 04:43:40;;;;;;;20.07;11.67;;;20.10;99.90;;;;;;5004852;28;20453;-83
2021/07/17 04:46:45;;;;;;;17.40;10.70;;;20.10;99.90;;;;;;5017662;28;20438;-90
2021/07/17 04:53:12;;;;;;;;;;;;;;;;;;;;;
2021/07/17 04:56:09;;;;;;;15.37;10.57;;;20.20;99.90;;;;;;4920887;29;20438;-83
2021/07/17 04:59:04;;;;;;;19.23;10.90;;;20.20;99.90;;;;;;4919945;29;20472;-84
2021/07/17 05:01:48;;;;;;;20.07;12.30;;;20.20;99.90;;;;;;4921403;29;20478;-83
2021/07/17 05:04:39;;;;;;;18.43;10.40;;;20.20;99.90;;;;;;4917862;29;20826;-83
2021/07/17 05:07:48;;;;;;;;;;;;;;;;;;;;;
2021/07/17 05:10:29;;;;;;;18.17;11.00;;;20.10;99.90;;;;;;4949186;29;20485;-82
2021/07/17 05:13:31;;;;;;;15.10;9.97;;;20.40;99.90;;;;;;4936683;29;21073;-83
2021/07/17 05:19:40;;;;;;;23.60;11.57;;;20.20;99.90;;;;;;4841338;29;20560;-86
2021/07/17 05:22:27;;;;;;;17.93;10.93;;;20.40;99.90;;;;;;4908171;29;20562;-85
2021/07/17 05:28:31;;;;;;;24.90;11.70;;;20.20;99.90;;;;;;4915525;29;20435;-87
2021/07/17 05:31:11;;;;;;;18.10;12.40;;;20.10;99.90;;;;;;4920058;29;21024;-85
2021/07/17 05:33:51;;;;;;;18.17;12.30;;;20.10;99.90;;;;;;4912074;29;20810;-83
2021/07/17 05:36:34;;;;;;;18.37;12.40;;;20.10;99.90;;;;;;4898251;29;20542;-84
2021/07/17 05:39:30;;;;;;;24.37;13.80;;;20.10;99.90;;;;;;4899204;29;20470;-83
2021/07/17 05:42:10;;;;;;;25.20;14.73;;;20.20;99.90;;;;;;4909011;29;20479;-85
2021/07/17 05:44:47;;;;;;;19.83;13.20;;;20.20;99.90;;;;;;4895685;29;20455;-83
2021/07/17 05:47:38;;;;;;;20.00;13.57;;;20.10;99.90;;;;;;4913256;29;20542;-85
2021/07/17 05:50:38;;;;;;;19.30;11.50;;;20.20;99.90;;;;;;4901871;29;20466;-84
2021/07/17 05:53:42;;;;;;;20.40;12.00;;;20.10;99.90;;;;;;4894203;29;20457;-83
2021/07/17 05:56:33;;;;;;;18.47;12.17;;;20.10;99.90;;;;;;4956361;28;20452;-88
2021/07/17 05:59:32;;;;;;;14.37;11.53;;;20.10;99.90;;;;;;5024704;28;20525;-90
2021/07/17 06:02:32;;;;;;;20.33;11.83;;;20.20;99.90;;;;;;5005210;28;20547;-90
2021/07/17 06:05:24;;;;;;;14.50;11.60;;;20.50;99.90;;;;;;5022306;28;20441;-89
2021/07/17 06:08:27;;;;;;;13.83;11.27;;;20.60;99.90;;;;;;4991608;28;20459;-84
2021/07/17 06:11:58;;;;;;;16.40;11.27;;;20.60;99.90;;;;;;5015578;28;20476;-84
2021/07/17 06:14:45;;;;;;;12.60;9.50;;;20.60;99.90;;;;;;5033825;28;20472;-89
2021/07/17 06:18:03;;;;;;;12.77;9.77;;;21.20;99.90;;;;;;5020136;28;20450;-84
2021/07/17 06:24:56;;;;;;;;;;;;;;;;;;;;;
2021/07/17 06:27:35;;;;;;;12.33;9.53;;;20.50;99.90;;;;;;5006881;28;20522;-84
2021/07/17 06:30:50;;;;;;;17.87;13.27;;;20.70;99.90;;;;;;5008792;28;20537;-85
2021/07/17 06:41:37;;;;;;;18.77;15.40;;;21.00;99.90;;;;;;5003236;28;20478;-84
2021/07/17 06:45:17;;;;;;;;;;;;;;;;;;;;;
2021/07/17 06:48:24;;;;;;;19.80;13.80;;;21.00;99.90;;;;;;5011391;28;20927;-87
2021/07/17 06:51:24;;;;;;;17.03;13.17;;;21.10;99.90;;;;;;4947730;29;20561;-85
2021/07/17 06:54:58;;;;;;;18.33;14.10;;;21.20;99.90;;;;;;4933054;29;20449;-84
2021/07/17 06:58:40;;;;;;;;;;;;;;;;;;;;;
2021/07/17 07:01:49;;;;;;;23.90;18.47;;;21.50;99.90;;;;;;4948993;28;20559;-85
2021/07/17 07:04:59;;;;;;;21.20;15.27;;;21.30;99.90;;;;;;4952460;29;21041;-83
2021/07/17 07:08:27;;;;;;;23.33;15.90;;;21.10;99.90;;;;;;4923860;29;20402;-85
2021/07/17 07:18:46;;;;;;;;;;;;;;;;;;;;;
2021/07/17 07:28:56;;;;;;;17.80;13.70;;;20.80;99.90;;;;;;4853769;29;20498;-86
2021/07/17 07:35:56;;;;;;;20.70;14.60;;;20.70;99.90;;;;;;4828903;29;21576;-84
2021/07/17 07:39:37;;;;;;;;;;;;;;;;;;;;;
2021/07/17 07:42:50;;;;;;;23.53;13.93;;;20.80;99.90;;;;;;4897040;29;20933;-83
2021/07/17 07:46:34;;;;;;;;;;;;;;;;;;;;;
2021/07/17 07:50:05;;;;;;;;;;;;;;;;;;;;;
2021/07/17 07:53:50;;;;;;;18.87;14.10;;;20.90;99.90;;;;;;4817197;29;20470;-86
2021/07/17 08:01:28;;;;;;;22.00;18.30;;;21.50;99.90;;;;;;4842743;29;20533;-85
2021/07/17 08:05:16;;;;;;;27.47;20.73;;;21.30;99.90;;;;;;4878500;29;20551;-84
2021/07/17 08:13:14;;;;;;;20.87;18.20;;;21.10;99.90;;;;;;4814808;29;20484;-84
2021/07/17 08:16:47;;;;;;;22.80;16.00;;;21.00;99.90;;;;;;4765791;30;20508;-84
2021/07/17 08:20:14;;;;;;;21.20;15.50;;;21.20;99.90;;;;;;4796869;29;20537;-84
2021/07/17 08:23:56;;;;;;;;;;;;;;;;;;;;;
2021/07/17 08:27:28;;;;;;;18.07;15.43;;;22.00;99.60;;;;;;4859991;29;20480;-84
2021/07/17 08:30:46;;;;;;;21.73;16.63;;;21.60;99.90;;;;;;4894917;29;20468;-86
2021/07/17 08:34:12;;;;;;;;;;;;;;;;;;;;;
2021/07/17 08:41:43;;;;;;;23.57;16.27;;;21.30;99.90;;;;;;4955747;28;20480;-83
2021/07/17 08:44:59;;;;;;;19.20;14.47;;;21.20;99.90;;;;;;4961189;28;20452;-82
2021/07/17 08:48:18;;;;;;;;;;;;;;;;;;;;;
2021/07/17 08:51:11;;;;;;;18.60;13.43;;;22.10;99.70;;;;;;4978570;28;20471;-85
2021/07/17 08:54:39;;;;;;;18.43;12.53;;;21.90;99.50;;;;;;4872232;29;20437;-86
2021/07/17 09:01:21;;;;;;;16.00;13.10;;;21.70;99.90;;;;;;4874593;29;20499;-85
2021/07/17 09:04:56;;;;;;;;;;;;;;;;;;;;;
2021/07/17 09:18:03;;;;;;;19.10;12.10;;;22.00;99.90;;;;;;1426257;26;20531;-87
2021/07/17 09:25:48;;;;;;;;;;;;;;;;;;;;;
2021/07/17 09:33:11;;;;;;;13.93;12.27;;;21.70;99.90;;;;;;4996429;28;20447;-85
2021/07/17 09:40:32;;;;;;;17.77;13.40;;;22.20;99.70;;;;;;4907179;29;20852;-84
2021/07/17 09:44:05;;;;;;;;;;;;;;;;;;;;;
2021/07/17 09:47:57;;;;;;;;;;;;;;;;;;;;;
2021/07/17 09:55:03;;;;;;;17.23;13.93;;;22.70;99.30;;;;;;4846363;29;20882;-86
2021/07/17 09:58:48;;;;;;;;;;;;;;;;;;;;;
2021/07/17 10:02:03;;;;;;;18.67;13.70;;;22.70;98.70;;;;;;4880358;29;20493;-85
2021/07/17 10:10:24;;;;;;;18.90;16.90;;;22.30;99.90;;;;;;4773348;30;20793;-85
2021/07/17 10:13:46;;;;;;;;;;;;;;;;;;;;;
2021/07/17 10:17:14;;;;;;;23.47;17.13;;;22.60;99.00;;;;;;4755958;30;20478;-83
2021/07/17 10:20:10;;;;;;;21.30;15.80;;;22.70;99.20;;;;;;4771321;30;20808;-83
2021/07/17 10:27:53;;;;;;;;;;;;;;;;;;;;;
2021/07/17 10:31:28;;;;;;;;;;;;;;;;;;;;;
2021/07/17 10:34:37;;;;;;;;;;;;;;;;;;;;;
2021/07/17 11:33:42;;;;;;;13.30;11.93;;;27.90;89.50;;;;;;4933955;29;20432;-87
2021/07/17 11:59:42;;;;;;;12.37;9.60;;;29.90;78.20;;;;;;4928536;29;20514;-84
2021/07/17 12:02:39;;;;;;;12.57;9.77;;;29.50;79.10;;;;;;4975085;28;20482;-84
2021/07/17 12:05:17;;;;;;;10.10;9.10;;;28.80;79.50;;;;;;4982563;28;20470;-84
2021/07/17 12:07:54;;;;;;;9.67;8.67;;;28.40;80.70;;;;;;4993616;28;20514;-89
2021/07/17 12:10:31;;;;;;;14.67;9.83;;;28.20;81.70;;;;;;5019705;28;20553;-86
2021/07/17 12:13:23;;;;;;;10.50;9.50;;;29.60;80.40;;;;;;5037298;28;20442;-89
2021/07/17 12:16:18;;;;;;;8.17;7.37;;;29.90;76.80;;;;;;5008000;28;20442;-91
2021/07/17 12:18:52;;;;;;;10.40;6.97;;;29.70;76.60;;;;;;5026506;28;20501;-85
2021/07/17 12:21:19;;;;;;;7.47;6.10;;;29.50;76.40;;;;;;5016681;28;20477;-85
2021/07/17 12:23:57;;;;;;;7.33;6.00;;;30.10;75.40;;;;;;5014978;28;20488;-83
2021/07/17 12:26:30;;;;;;;7.60;6.10;;;30.60;71.90;;;;;;5000596;28;20529;-84
2021/07/17 12:28:57;;;;;;;7.80;5.87;;;30.20;73.20;;;;;;4993866;28;20464;-84
2021/07/17 12:31:25;;;;;;;7.17;6.13;;;30.00;73.30;;;;;;4998984;28;20497;-84
2021/07/17 12:33:52;;;;;;;8.37;5.60;;;29.60;73.60;;;;;;5001549;28;20457;-83
2021/07/17 12:36:40;;;;;;;7.67;5.33;;;29.20;75.10;;;;;;4994936;28;20796;-85
2021/07/17 12:39:41;;;;;;;12.67;5.70;;;28.90;76.30;;;;;;4988641;28;20528;-84
2021/07/17 12:42:11;;;;;;;8.40;6.10;;;28.90;76.80;;;;;;4990357;28;20505;-84
2021/07/17 12:44:56;;;;;;;6.27;4.80;;;29.00;76.40;;;;;;4992893;28;20443;-85
2021/07/17 12:47:24;;;;;;;9.30;5.37;;;29.30;75.70;;;;;;5002450;28;20493;-83
2021/07/17 12:50:02;;;;;;;6.00;5.10;;;29.60;75.60;;;;;;5003806;28;20525;-86
2021/07/17 12:52:29;;;;;;;7.20;5.43;;;29.70;73.70;;;;;;5001969;28;20458;-84
2021/07/17 12:55:11;;;;;;;7.73;4.37;;;29.40;74.30;;;;;;4999757;28;20941;-84
2021/07/17 12:57:42;;;;;;;6.03;5.17;;;29.20;75.50;;;;;;4999057;28;20470;-87
2021/07/17 13:00:09;;;;;;;7.20;3.97;;;29.60;74.40;;;;;;4998460;28;20808;-85
2021/07/17 13:02:48;;;;;;;5.70;4.83;;;29.70;73.20;;;;;;5017143;28;20819;-84
2021/07/17 13:05:35;;;;;;;6.30;4.60;;;29.70;73.70;;;;;;5019062;28;20443;-85
2021/07/17 13:08:02;;;;;;;5.90;4.30;;;30.30;71.90;;;;;;5000202;28;20459;-86
2021/07/17 13:10:35;;;;;;;5.47;4.47;;;30.20;70.70;;;;;;5007825;28;20884;-85
2021/07/17 13:13:06;;;;;;;7.00;3.97;;;29.80;70.70;;;;;;5002245;28;20446;-84
2021/07/17 13:15:34;;;;;;;5.60;4.40;;;29.50;71.80;;;;;;5015340;28;20462;-88
2021/07/17 13:18:14;;;;;;;4.53;4.03;;;30.20;70.90;;;;;;5018513;28;20466;-86
2021/07/17 13:20:42;;;;;;;8.10;4.40;;;30.20;71.00;;;;;;5015593;28;20469;-90
2021/07/17 13:23:10;;;;;;;5.83;4.50;;;29.90;70.80;;;;;;5018288;28;20453;-90
2021/07/17 13:25:39;;;;;;;4.60;3.67;;;29.60;71.50;;;;;;5018478;28;20465;-87
2021/07/17 13:28:08;;;;;;;6.40;4.37;;;29.50;71.90;;;;;;5028658;28;20811;-84
2021/07/17 13:30:35;;;;;;;7.60;4.70;;;29.40;72.40;;;;;;5018768;28;20497;-84
2021/07/17 13:33:23;;;;;;;5.77;4.80;;;29.10;73.40;;;;;;5010380;28;20461;-87
2021/07/17 13:36:06;;;;;;;7.00;3.93;;;30.00;71.00;;;;;;5019105;28;20488;-92
2021/07/17 13:38:36;;;;;;;6.80;4.10;;;30.20;69.90;;;;;;5009983;28;20474;-88
2021/07/17 13:41:11;;;;;;;6.20;3.73;;;30.70;67.60;;;;;;5005583;28;20482;-87
2021/07/17 13:43:51;;;;;;;9.37;4.57;;;30.90;66.90;;;;;;5026331;28;20438;-85
2021/07/17 13:46:36;;;;;;;5.27;3.47;;;30.50;67.70;;;;;;5002269;28;20442;-85
2021/07/17 13:49:21;;;;;;;6.00;3.90;;;29.90;70.20;;;;;;5006006;28;20450;-85
2021/07/17 13:51:49;;;;;;;6.97;4.30;;;29.60;71.50;;;;;;5002405;28;20478;-84
2021/07/17 13:54:17;;;;;;;4.83;3.67;;;29.40;71.60;;;;;;5002079;28;20460;-87
2021/07/17 13:56:43;;;;;;;4.23;3.60;;;29.30;72.20;;;;;;5008364;28;20457;-88
2021/07/17 13:59:10;;;;;;;5.17;3.43;;;29.20;72.70;;;;;;5005447;28;20465;-87
2021/07/17 14:01:37;;;;;;;5.10;3.50;;;29.40;71.40;;;;;;4999882;28;20474;-85
2021/07/17 14:04:04;;;;;;;3.77;3.37;;;29.20;70.70;;;;;;5019712;28;20879;-83
2021/07/17 14:06:31;;;;;;;4.93;3.30;;;29.10;71.00;;;;;;5000016;28;20489;-83
2021/07/17 14:08:58;;;;;;;4.40;3.10;;;29.50;70.10;;;;;;5000014;28;20517;-83
2021/07/17 14:11:34;;;;;;;4.10;3.60;;;29.60;69.20;;;;;;5003211;28;20481;-83
2021/07/17 14:14:17;;;;;;;5.40;3.70;;;29.90;68.30;;;;;;5006005;28;20446;-87
2021/07/17 14:16:54;;;;;;;4.00;2.90;;;30.00;67.80;;;;;;5002480;28;20445;-85
2021/07/17 14:19:26;;;;;;;4.50;3.03;;;29.90;68.30;;;;;;5005083;28;20446;-84
2021/07/17 14:21:54;;;;;;;5.20;3.33;;;29.50;69.10;;;;;;5001847;28;20478;-83
2021/07/17 14:24:21;;;;;;;3.77;2.83;;;29.50;70.00;;;;;;5009267;28;21081;-93
2021/07/17 14:26:49;;;;;;;4.33;2.60;;;29.30;70.10;;;;;;5011656;28;20466;-84
2021/07/17 14:29:16;;;;;;;5.27;3.30;;;29.20;70.00;;;;;;5005110;28;20466;-84
2021/07/17 14:31:44;;;;;;;4.20;3.77;;;28.90;71.20;;;;;;5004935;28;20561;-84
2021/07/17 14:34:19;;;;;;;4.07;3.70;;;28.90;71.50;;;;;;5004635;28;20536;-88
2021/07/17 14:36:46;;;;;;;3.87;2.80;;;29.00;71.30;;;;;;5002139;28;20545;-87
2021/07/17 14:39:16;;;;;;;3.80;3.07;;;28.90;71.30;;;;;;5009933;28;20465;-84
2021/07/17 14:41:52;;;;;;;4.40;3.03;;;28.90;72.00;;;;;;5020483;28;20476;-84
2021/07/17 14:44:36;;;;;;;4.77;3.40;;;28.90;71.90;;;;;;5025351;28;20464;-83
2021/07/17 14:47:10;;;;;;;3.33;2.50;;;29.50;69.90;;;;;;5021133;28;20503;-83
2021/07/17 14:49:46;;;;;;;6.10;3.57;;;29.70;68.20;;;;;;5008966;28;20515;-85
2021/07/17 14:52:14;;;;;;;3.57;2.50;;;29.50;69.00;;;;;;4985669;28;20470;-84
2021/07/17 14:54:42;;;;;;;4.83;2.73;;;29.30;70.10;;;;;;5009662;28;20453;-84
2021/07/17 14:57:10;;;;;;;4.93;2.47;;;29.20;70.30;;;;;;4999915;28;20458;-87
2021/07/17 14:59:42;;;;;;;4.33;2.63;;;29.30;69.40;;;;;;5000249;28;20813;-84
2021/07/17 15:02:12;;;;;;;5.70;2.93;;;29.20;69.30;;;;;;5001659;28;20483;-83
2021/07/17 15:04:40;;;;;;;3.40;2.70;;;29.00;70.10;;;;;;5017382;28;20758;-83
2021/07/17 15:07:20;;;;;;;3.23;2.50;;;28.80;71.20;;;;;;5002585;28;20449;-85
2021/07/17 15:09:48;;;;;;;5.10;2.80;;;29.10;69.80;;;;;;4984464;28;20450;-83
2021/07/17 15:12:18;;;;;;;3.70;3.20;;;29.00;70.10;;;;;;4995152;28;20486;-83
2021/07/17 15:14:48;;;;;;;2.70;2.30;;;28.90;70.60;;;;;;5000860;28;20450;-82
2021/07/17 15:17:18;;;;;;;3.13;2.40;;;29.00;70.90;;;;;;5007729;28;20541;-90
2021/07/17 15:19:46;;;;;;;3.27;2.30;;;29.30;69.30;;;;;;5016454;28;20520;-91
2021/07/17 15:22:13;;;;;;;3.50;2.10;;;29.20;69.30;;;;;;4996460;28;20922;-83
2021/07/17 15:24:40;;;;;;;2.77;2.37;;;29.10;69.90;;;;;;5001745;28;20554;-83
2021/07/17 15:27:23;;;;;;;3.53;2.63;;;29.10;69.50;;;;;;5002183;28;20454;-85
2021/07/17 15:30:03;;;;;;;3.77;2.30;;;28.90;71.00;;;;;;5004912;28;20501;-84
2021/07/17 15:32:55;;;;;;;4.70;2.20;;;28.70;71.20;;;;;;5000841;28;20498;-85
2021/07/17 15:35:23;;;;;;;3.97;2.73;;;28.60;71.50;;;;;;4998616;28;20453;-85
2021/07/17 15:37:50;;;;;;;3.20;2.87;;;28.60;71.90;;;;;;5002840;28;20830;-83
2021/07/17 15:40:17;;;;;;;3.63;2.10;;;28.80;71.80;;;;;;5003510;28;20457;-84
2021/07/17 15:42:43;;;;;;;3.53;2.57;;;29.00;71.10;;;;;;5019779;28;20474;-84
2021/07/17 15:45:11;;;;;;;3.10;2.60;;;28.80;70.20;;;;;;5012291;28;20447;-84
2021/07/17 15:47:38;;;;;;;3.70;2.50;;;28.60;70.70;;;;;;4996991;28;20586;-84
2021/07/17 15:50:05;;;;;;;3.63;1.90;;;28.60;70.60;;;;;;4997805;28;20458;-84
2021/07/17 15:52:35;;;;;;;3.90;2.57;;;28.50;71.60;;;;;;4999768;28;20492;-86
2021/07/17 15:55:02;;;;;;;2.50;2.07;;;28.50;71.90;;;;;;5003757;28;20552;-87
2021/07/17 15:57:29;;;;;;;4.90;2.80;;;28.50;71.60;;;;;;5002849;28;20478;-83
2021/07/17 15:59:57;;;;;;;5.13;2.20;;;28.50;72.40;;;;;;4992240;28;20498;-85
2021/07/17 16:02:38;;;;;;;4.40;2.50;;;28.50;71.90;;;;;;5003021;28;20985;-86
2021/07/17 16:05:16;;;;;;;2.87;2.60;;;28.70;72.00;;;;;;5003866;28;20542;-82
2021/07/17 16:08:09;;;;;;;5.40;2.20;;;28.70;72.30;;;;;;4997194;28;20459;-82
2021/07/17 16:10:50;;;;;;;3.70;2.60;;;29.00;71.70;;;;;;4980278;28;20466;-87
2021/07/17 16:13:22;;;;;;;3.50;2.50;;;29.00;71.10;;;;;;4982563;28;20550;-84
2021/07/17 16:15:54;;;;;;;4.13;2.53;;;29.00;71.20;;;;;;4994444;28;20459;-81
2021/07/17 16:18:33;;;;;;;3.90;2.67;;;28.60;70.90;;;;;;4995901;28;20462;-82
2021/07/17 16:21:02;;;;;;;3.03;2.70;;;28.50;72.00;;;;;;4996068;28;20485;-83
2021/07/17 16:23:31;;;;;;;4.30;2.47;;;28.70;71.90;;;;;;4997554;28;20446;-82
2021/07/17 16:26:13;;;;;;;4.90;2.27;;;28.70;72.40;;;;;;4982803;28;20468;-82
2021/07/17 16:28:45;;;;;;;2.97;2.40;;;28.70;72.10;;;;;;5000273;28;20521;-81
2021/07/17 16:31:12;;;;;;;2.50;2.30;;;28.90;70.90;;;;;;5002981;28;20473;-87
2021/07/17 16:34:02;;;;;;;5.50;2.93;;;28.90;69.70;;;;;;5014300;28;20558;-91
2021/07/17 16:37:04;;;;;;;5.07;2.60;;;28.80;70.60;;;;;;5001076;28;20458;-92
2021/07/17 16:39:32;;;;;;;5.57;2.50;;;28.70;71.10;;;;;;5015362;28;20545;-84
2021/07/17 16:42:02;;;;;;;5.03;2.70;;;28.30;72.40;;;;;;5011551;28;20563;-83
2021/07/17 16:44:41;;;;;;;4.43;2.70;;;28.20;73.50;;;;;;5006193;28;20477;-86
2021/07/17 16:47:55;;;;;;;3.60;2.37;;;28.20;73.80;;;;;;4925947;29;20470;-88
2021/07/17 16:50:25;;;;;;;6.77;2.57;;;28.20;73.80;;;;;;4930120;29;20526;-84
2021/07/17 16:53:09;;;;;;;5.77;2.30;;;28.30;74.50;;;;;;4940346;29;20420;-83
2021/07/17 16:55:36;;;;;;;5.13;2.60;;;28.40;73.80;;;;;;4925610;29;20473;-84
2021/07/17 16:59:01;;;;;;;3.43;2.70;;;28.60;73.40;;;;;;4937818;29;20455;-84
2021/07/17 17:04:59;;;;;;;5.87;3.07;;;28.60;72.80;;;;;;4941559;29;20521;-85
2021/07/17 17:07:33;;;;;;;5.83;3.27;;;28.50;73.00;;;;;;4926377;29;20446;-84
2021/07/17 17:12:48;;;;;;;3.10;2.63;;;28.40;73.50;;;;;;1483922;26;20975;-84
2021/07/17 17:15:16;;;;;;;3.83;3.23;;;28.20;74.20;;;;;;5001651;28;20494;-85
2021/07/17 17:18:19;;;;;;;3.20;2.90;;;28.50;73.30;;;;;;5000331;28;20427;-86
2021/07/17 17:21:07;;;;;;;3.43;2.53;;;28.50;72.30;;;;;;5012848;23;20577;-84
2021/07/17 17:23:41;;;;;;;3.17;2.63;;;28.20;72.30;;;;;;5019515;28;20462;-84
2021/07/17 17:26:17;;;;;;;4.87;2.47;;;28.10;73.10;;;;;;5015141;28;20482;-83
2021/07/17 17:29:24;;;;;;;4.30;3.00;;;27.90;72.70;;;;;;4963302;28;20452;-83
2021/07/17 17:43:36;;;;;;;2.60;1.97;;;27.60;72.30;;;;;;4960372;29;20470;-84
2021/07/17 17:46:14;;;;;;;5.27;2.63;;;27.50;70.70;;;;;;4961308;28;20457;-86
2021/07/17 17:48:42;;;;;;;4.17;2.67;;;27.50;70.00;;;;;;5273614;23;20509;-88
2021/07/17 17:51:09;;;;;;;4.40;2.17;;;27.80;69.00;;;;;;5029835;28;20506;-84
2021/07/17 17:53:36;;;;;;;3.87;2.70;;;27.90;67.40;;;;;;5011512;28;20528;-85
2021/07/17 17:56:07;;;;;;;5.47;2.53;;;27.80;67.50;;;;;;5020535;28;20581;-85
2021/07/17 17:58:46;;;;;;;4.17;2.63;;;27.70;66.90;;;;;;5029791;28;20505;-85
2021/07/17 18:01:21;;;;;;;4.50;2.60;;;27.50;67.00;;;;;;5029360;28;20496;-85
2021/07/17 18:03:48;;;;;;;3.00;2.07;;;27.70;65.00;;;;;;5019167;28;20473;-83
2021/07/17 18:06:16;;;;;;;10.97;3.30;;;27.60;66.70;;;;;;5008231;28;20450;-85
2021/07/17 18:08:46;;;;;;;3.80;2.53;;;27.60;66.00;;;;;;5008094;28;20466;-86
2021/07/17 18:11:14;;;;;;;2.60;2.40;;;27.90;63.90;;;;;;5025789;28;20997;-84
2021/07/17 18:13:41;;;;;;;3.20;2.50;;;27.70;67.00;;;;;;5030084;28;20565;-84
2021/07/17 18:16:11;;;;;;;4.00;2.40;;;27.70;64.10;;;;;;5028266;28;20449;-84
2021/07/17 18:18:38;;;;;;;3.23;2.83;;;27.40;65.10;;;;;;5042018;28;20457;-83
2021/07/17 18:21:05;;;;;;;5.80;3.40;;;27.50;64.60;;;;;;5006073;28;20653;-84
2021/07/17 18:23:32;;;;;;;3.33;3.00;;;27.60;64.00;;;;;;5023322;28;20486;-84
2021/07/17 18:26:00;;;;;;;5.50;3.40;;;27.40;65.20;;;;;;5007235;28;20456;-84
2021/07/17 18:28:27;;;;;;;3.97;2.97;;;27.30;65.10;;;;;;5023819;28;20457;-82
2021/07/17 18:30:53;;;;;;;2.83;2.40;;;27.10;67.00;;;;;;5022244;28;20561;-83
2021/07/17 18:33:22;;;;;;;4.97;2.97;;;27.00;65.80;;;;;;5021049;28;20516;-82
2021/07/17 18:35:51;;;;;;;4.87;2.73;;;27.00;66.20;;;;;;5015342;28;20441;-82
2021/07/17 18:38:19;;;;;;;3.83;3.37;;;27.00;65.70;;;;;;5056644;28;20532;-86
2021/07/17 18:40:48;;;;;;;4.43;3.20;;;26.90;66.70;;;;;;5040304;28;20488;-89
2021/07/17 18:43:18;;;;;;;4.30;3.17;;;27.00;66.30;;;;;;5040310;28;20476;-86
2021/07/17 18:45:45;;;;;;;4.57;3.80;;;26.90;67.30;;;;;;5031483;28;20462;-84
2021/07/17 18:48:13;;;;;;;4.70;3.10;;;26.80;66.30;;;;;;5023546;28;20468;-82
2021/07/17 18:50:42;;;;;;;6.30;2.83;;;26.70;67.90;;;;;;5014650;28;20508;-82
2021/07/17 18:53:09;;;;;;;4.73;2.70;;;26.60;67.20;;;;;;5034370;28;20454;-83
2021/07/17 18:55:35;;;;;;;3.77;2.70;;;26.70;66.20;;;;;;5015608;28;20525;-83
2021/07/17 18:58:03;;;;;;;3.00;2.60;;;26.60;66.00;;;;;;5043738;28;20445;-83
2021/07/17 19:00:30;;;;;;;3.50;2.87;;;26.60;65.90;;;;;;5025997;28;20475;-87
2021/07/17 19:02:56;;;;;;;3.57;2.80;;;26.60;65.50;;;;;;5021797;28;20481;-83
2021/07/17 19:05:24;;;;;;;3.67;2.97;;;26.40;66.70;;;;;;5015656;28;20452;-86
2021/07/17 19:07:52;;;;;;;2.37;2.17;;;26.50;65.00;;;;;;5044438;28;20437;-85
2021/07/17 19:10:19;;;;;;;6.50;3.70;;;26.30;66.20;;;;;;5041340;28;20460;-84
2021/07/17 19:12:46;;;;;;;3.47;3.00;;;26.40;64.50;;;;;;5023275;28;20446;-86
2021/07/17 19:15:15;;;;;;;4.80;3.00;;;26.50;64.20;;;;;;5023771;28;20465;-85
2021/07/17 19:17:42;;;;;;;3.10;2.80;;;26.50;64.20;;;;;;5006538;28;20462;-84
2021/07/17 19:20:17;;;;;;;3.97;3.10;;;26.50;62.80;;;;;;5011058;28;20465;-85
2021/07/17 19:22:46;;;;;;;4.20;2.80;;;26.40;62.70;;;;;;5007968;28;20497;-84
2021/07/17 19:25:14;;;;;;;4.23;2.57;;;26.00;63.90;;;;;;5024748;28;20449;-83
2021/07/17 19:27:41;;;;;;;4.90;2.50;;;26.00;65.40;;;;;;5036104;28;20453;-83
2021/07/17 19:30:12;;;;;;;3.83;2.60;;;25.80;65.60;;;;;;5028212;28;20449;-85
2021/07/17 19:32:40;;;;;;;3.10;2.53;;;25.80;66.20;;;;;;5023190;28;20453;-84
2021/07/17 19:35:09;;;;;;;5.27;2.63;;;25.70;65.60;;;;;;5013237;28;20483;-83
2021/07/17 19:37:38;;;;;;;2.60;2.40;;;25.70;66.20;;;;;;5028643;28;20544;-88
2021/07/17 19:40:09;;;;;;;6.53;3.30;;;25.60;66.20;;;;;;5039458;28;20481;-84
2021/07/17 19:42:37;;;;;;;3.03;2.73;;;25.60;66.00;;;;;;5056876;28;20516;-85
2021/07/17 19:45:06;;;;;;;4.63;3.20;;;25.70;65.70;;;;;;5034256;28;20839;-84
2021/07/17 19:47:35;;;;;;;3.37;2.87;;;25.60;66.10;;;;;;5029870;28;20798;-86
2021/07/17 19:50:04;;;;;;;3.07;2.87;;;25.60;66.40;;;;;;5029622;28;20743;-83
2021/07/17 19:52:32;;;;;;;5.80;3.50;;;25.60;66.30;;;;;;5031704;28;20473;-84